createdAt,value
2022-08-27T00:00:45.738Z,3.67
2022-08-27T00:03:13.232Z,6.70
2022-08-27T00:05:40.869Z,4.07
2022-08-27T00:08:09.105Z,5.50
2022-08-27T00:10:36.356Z,3.83
2022-08-27T00:13:03.780Z,4.20
2022-08-27T00:15:30.954Z,3.83
2022-08-27T00:17:58.072Z,3.77
2022-08-27T00:20:26.149Z,3.30
2022-08-27T00:22:53.678Z,3.00
2022-08-27T00:25:21.295Z,3.03
2022-08-27T00:27:48.399Z,3.37
2022-08-27T00:30:17.484Z,4.23
2022-08-27T00:32:45.004Z,2.43
2022-08-27T00:35:14.084Z,5.83
2022-08-27T00:37:41.248Z,4.00
2022-08-27T00:40:09.618Z,2.70
2022-08-27T00:42:36.801Z,3.80
2022-08-27T00:45:05.365Z,3.57
2022-08-27T00:47:33.547Z,3.70
2022-08-27T00:50:06.760Z,4.27
2022-08-27T00:52:43.287Z,5.50
2022-08-27T00:55:13.699Z,3.00
2022-08-27T00:57:41.911Z,3.83
2022-08-27T01:00:11.511Z,3.30
2022-08-27T01:02:38.851Z,3.80
2022-08-27T01:05:09.393Z,2.87
2022-08-27T01:07:38.515Z,4.13
2022-08-27T01:10:07.774Z,3.70
2022-08-27T01:12:35.628Z,4.00
2022-08-27T01:15:06.624Z,4.13
2022-08-27T01:17:34.674Z,3.20
2022-08-27T01:20:05.659Z,3.63
2022-08-27T01:23:04.962Z,4.27
2022-08-27T01:25:32.578Z,4.37
2022-08-27T01:28:00.692Z,4.23
2022-08-27T01:30:28.562Z,3.90
2022-08-27T01:32:56.054Z,3.40
2022-08-27T01:35:23.530Z,3.10
2022-08-27T01:37:52.458Z,3.60
2022-08-27T01:40:20.607Z,2.70
2022-08-27T01:42:49.867Z,3.73
2022-08-27T01:45:21.689Z,3.43
2022-08-27T01:47:48.863Z,2.60
2022-08-27T01:50:17.769Z,3.63
2022-08-27T01:52:45.602Z,4.33
2022-08-27T01:55:13.979Z,3.10
2022-08-27T01:57:41.729Z,3.60
2022-08-27T02:00:11.616Z,2.40
2022-08-27T02:02:39.288Z,3.30
2022-08-27T02:05:06.653Z,3.80
2022-08-27T02:07:33.756Z,1.90
2022-08-27T02:10:00.915Z,2.47
2022-08-27T02:12:28.047Z,2.10
2022-08-27T02:14:55.178Z,1.67
2022-08-27T02:17:22.277Z,1.93
2022-08-27T02:19:49.393Z,2.00
2022-08-27T02:22:17.030Z,3.17
2022-08-27T02:24:44.196Z,2.43
2022-08-27T02:27:11.896Z,2.80
2022-08-27T02:29:39.396Z,1.73
2022-08-27T02:32:06.606Z,1.43
2022-08-27T02:34:34.047Z,2.83
2022-08-27T02:37:01.177Z,2.27
2022-08-27T02:39:28.300Z,2.47
2022-08-27T02:41:55.693Z,2.10
2022-08-27T02:44:22.820Z,3.23
2022-08-27T02:46:50.040Z,3.13
2022-08-27T02:49:20.830Z,2.27
2022-08-27T02:51:47.959Z,2.23
2022-08-27T02:54:16.953Z,2.30
2022-08-27T02:56:44.616Z,4.70
2022-08-27T02:59:11.732Z,3.13
2022-08-27T03:01:38.912Z,2.90
2022-08-27T03:04:06.056Z,2.27
2022-08-27T03:06:33.131Z,2.40
2022-08-27T03:09:00.462Z,2.50
2022-08-27T03:11:27.717Z,2.53
2022-08-27T03:13:54.792Z,3.13
2022-08-27T03:16:21.927Z,1.87
2022-08-27T03:18:49.065Z,2.17
2022-08-27T03:21:21.020Z,1.73
2022-08-27T03:23:48.733Z,2.67
2022-08-27T03:26:15.939Z,5.43
2022-08-27T03:28:43.067Z,2.13
2022-08-27T03:31:14.811Z,2.53
2022-08-27T03:33:43.399Z,3.07
2022-08-27T03:36:10.551Z,1.23
2022-08-27T03:38:38.009Z,1.80
2022-08-27T03:41:05.420Z,2.23
2022-08-27T03:43:32.592Z,2.03
2022-08-27T03:46:01.815Z,2.10
2022-08-27T03:48:29.653Z,2.10
2022-08-27T03:50:57.240Z,1.97
2022-08-27T03:53:24.792Z,2.00
2022-08-27T03:55:51.912Z,1.87
2022-08-27T03:58:19.057Z,2.50
2022-08-27T04:00:46.523Z,2.73
2022-08-27T04:03:14.710Z,2.30
2022-08-27T04:05:42.568Z,1.90
2022-08-27T04:08:13.347Z,1.80
2022-08-27T04:10:41.574Z,2.33
2022-08-27T04:13:08.738Z,2.57
2022-08-27T04:15:40.740Z,2.20
2022-08-27T04:18:08.353Z,2.33
2022-08-27T04:20:36.259Z,1.87
2022-08-27T04:23:03.710Z,1.50
2022-08-27T04:25:30.849Z,2.27
2022-08-27T04:27:58.667Z,1.60
2022-08-27T04:30:25.841Z,1.90
2022-08-27T04:32:52.987Z,1.80
2022-08-27T04:35:20.082Z,3.13
2022-08-27T04:37:47.248Z,1.70
2022-08-27T04:40:14.395Z,2.60
2022-08-27T04:42:42.273Z,2.00
2022-08-27T04:45:09.626Z,1.57
2022-08-27T04:47:36.965Z,3.43
2022-08-27T04:50:05.795Z,2.27
2022-08-27T04:52:33.049Z,2.00
2022-08-27T04:55:00.463Z,2.10
2022-08-27T04:57:27.806Z,1.80
2022-08-27T04:59:56.893Z,1.83
2022-08-27T05:02:24.014Z,1.53
2022-08-27T05:04:51.179Z,2.27
2022-08-27T05:07:19.222Z,2.70
2022-08-27T05:09:46.380Z,2.43
2022-08-27T05:12:13.478Z,1.93
2022-08-27T05:14:40.571Z,1.87
2022-08-27T05:17:07.846Z,1.50
2022-08-27T05:19:35.020Z,2.43
2022-08-27T05:22:02.178Z,3.27
2022-08-27T05:24:29.300Z,1.50
2022-08-27T05:26:56.494Z,1.33
2022-08-27T05:29:24.218Z,2.43
2022-08-27T05:31:51.437Z,2.20
2022-08-27T05:34:24.604Z,1.70
2022-08-27T05:36:53.417Z,1.90
2022-08-27T05:39:21.186Z,2.07
2022-08-27T05:41:48.278Z,1.70
2022-08-27T05:44:40.564Z,3.63
2022-08-27T05:47:04.645Z,1.80
2022-08-27T05:49:31.787Z,2.73
2022-08-27T05:51:58.925Z,1.40
2022-08-27T05:54:26.058Z,2.03
2022-08-27T05:56:53.162Z,1.50
2022-08-27T05:59:39.062Z,2.57
2022-08-27T06:02:07.105Z,1.77
2022-08-27T06:04:34.675Z,2.00
2022-08-27T06:07:02.018Z,1.93
2022-08-27T06:09:29.655Z,2.67
2022-08-27T06:11:57.724Z,2.37
2022-08-27T06:14:25.358Z,1.90
2022-08-27T06:16:52.934Z,2.43
2022-08-27T06:19:20.045Z,2.50
2022-08-27T06:22:00.735Z,2.90
2022-08-27T06:24:34.422Z,3.10
2022-08-27T06:27:01.565Z,2.13
2022-08-27T06:29:28.753Z,3.10
2022-08-27T06:31:56.351Z,2.60
2022-08-27T06:34:23.466Z,1.80
2022-08-27T06:36:50.649Z,2.27
2022-08-27T06:39:17.832Z,2.30
2022-08-27T06:41:45.332Z,2.23
2022-08-27T06:44:13.224Z,2.00
2022-08-27T06:46:40.576Z,2.57
2022-08-27T06:49:07.803Z,3.00
2022-08-27T06:51:36.571Z,2.63
2022-08-27T06:54:04.910Z,1.93
2022-08-27T06:56:32.798Z,2.83
2022-08-27T06:59:01.650Z,2.00
2022-08-27T07:01:30.597Z,2.77
2022-08-27T07:04:02.056Z,1.93
2022-08-27T07:06:30.418Z,2.93
2022-08-27T07:08:57.505Z,3.30
2022-08-27T07:11:25.067Z,2.23
2022-08-27T07:13:52.589Z,2.17
2022-08-27T07:16:22.775Z,1.93
2022-08-27T07:18:52.157Z,1.70
2022-08-27T07:21:22.503Z,2.90
2022-08-27T07:23:51.261Z,3.00
2022-08-27T07:26:19.457Z,2.27
2022-08-27T07:28:47.785Z,2.57
2022-08-27T07:31:18.598Z,1.73
2022-08-27T07:33:51.494Z,2.60
2022-08-27T07:36:20.411Z,2.80
2022-08-27T07:38:52.719Z,1.77
2022-08-27T07:41:30.817Z,2.67
2022-08-27T07:44:17.308Z,2.10
2022-08-27T07:46:47.925Z,1.90
2022-08-27T07:49:16.493Z,1.73
2022-08-27T07:51:43.592Z,3.37
2022-08-27T07:54:10.877Z,1.60
2022-08-27T07:56:37.962Z,2.50
2022-08-27T07:59:05.098Z,1.47
2022-08-27T08:01:32.285Z,1.40
2022-08-27T08:03:59.454Z,1.83
2022-08-27T08:06:27.110Z,1.93
2022-08-27T08:08:54.439Z,1.57
2022-08-27T08:11:21.679Z,1.90
2022-08-27T08:13:48.891Z,1.57
2022-08-27T08:16:16.426Z,1.70
2022-08-27T08:18:43.521Z,1.50
2022-08-27T08:21:12.036Z,1.43
2022-08-27T08:23:39.130Z,2.40
2022-08-27T08:26:06.882Z,2.00
2022-08-27T08:28:34.388Z,2.13
2022-08-27T08:31:01.671Z,2.50
2022-08-27T08:33:31.435Z,1.53
2022-08-27T08:36:05.618Z,2.70
2022-08-27T08:38:32.844Z,2.13
2022-08-27T08:41:00.029Z,2.00
2022-08-27T08:43:30.750Z,2.10
2022-08-27T08:46:01.165Z,1.33
2022-08-27T08:48:29.687Z,1.47
2022-08-27T08:51:02.929Z,1.60
2022-08-27T08:53:36.271Z,1.73
2022-08-27T08:56:05.129Z,0.80
2022-08-27T08:58:38.512Z,1.30
2022-08-27T09:01:07.223Z,1.20
2022-08-27T09:03:36.360Z,1.60
2022-08-27T09:06:05.749Z,1.40
2022-08-27T09:08:39.127Z,1.60
2022-08-27T09:11:35.058Z,1.33
2022-08-27T09:14:04.791Z,1.47
2022-08-27T09:16:32.596Z,1.20
2022-08-27T09:19:02.929Z,1.50
2022-08-27T09:21:45.793Z,1.70
2022-08-27T09:24:19.063Z,0.80
2022-08-27T09:26:46.149Z,0.80
2022-08-27T09:29:21.718Z,0.83
2022-08-27T09:31:53.625Z,1.10
2022-08-27T09:34:21.170Z,1.60
2022-08-27T09:36:53.040Z,1.47
2022-08-27T09:39:20.764Z,1.20
2022-08-27T09:41:48.829Z,0.80
2022-08-27T09:44:18.415Z,1.27
2022-08-27T09:46:56.761Z,2.00
2022-08-27T09:49:24.642Z,1.47
2022-08-27T09:51:52.214Z,1.20
2022-08-27T09:54:31.823Z,1.37
2022-08-27T09:56:59.116Z,0.80
2022-08-27T09:59:28.450Z,1.10
2022-08-27T10:02:15.355Z,1.37
2022-08-27T10:04:51.849Z,1.50
2022-08-27T10:07:22.017Z,1.20
2022-08-27T10:09:55.379Z,1.63
2022-08-27T10:12:33.776Z,1.23
2022-08-27T10:15:01.810Z,1.40
2022-08-27T10:17:44.229Z,0.90
2022-08-27T10:20:21.952Z,1.00
2022-08-27T10:23:10.492Z,0.80
2022-08-27T10:25:47.074Z,0.83
2022-08-27T10:28:24.355Z,1.00
2022-08-27T10:30:57.871Z,2.07
2022-08-27T10:33:35.569Z,1.50
2022-08-27T10:36:21.252Z,1.00
2022-08-27T10:39:01.850Z,1.53
2022-08-27T10:41:37.593Z,0.60
2022-08-27T10:44:07.450Z,1.27
2022-08-27T10:46:50.022Z,1.00
2022-08-27T10:49:30.122Z,1.07
2022-08-27T10:51:59.977Z,1.27
2022-08-27T10:54:33.117Z,1.10
2022-08-27T10:57:28.500Z,1.30
2022-08-27T10:59:56.083Z,1.13
2022-08-27T11:02:27.029Z,0.97
2022-08-27T11:04:55.773Z,1.70
2022-08-27T11:07:25.307Z,1.03
2022-08-27T11:10:00.607Z,2.37
2022-08-27T11:12:48.847Z,1.97
2022-08-27T11:15:32.741Z,1.00
2022-08-27T11:18:16.172Z,1.50
2022-08-27T11:20:53.820Z,0.80
2022-08-27T11:23:24.061Z,1.60
2022-08-27T11:25:54.034Z,1.50
2022-08-27T11:28:29.911Z,0.87
2022-08-27T11:31:16.889Z,1.07
2022-08-27T11:34:02.662Z,1.60
2022-08-27T11:36:29.726Z,1.30
2022-08-27T11:39:04.070Z,1.60
2022-08-27T11:41:45.367Z,1.63
2022-08-27T11:44:14.424Z,1.73
2022-08-27T11:46:46.704Z,1.07
2022-08-27T11:49:24.065Z,1.20
2022-08-27T11:51:57.658Z,2.00
2022-08-27T11:54:27.732Z,1.97
2022-08-27T11:56:55.142Z,1.77
2022-08-27T11:59:28.349Z,1.53
2022-08-27T12:01:56.850Z,1.27
2022-08-27T12:04:33.772Z,1.33
2022-08-27T12:07:03.934Z,2.10
2022-08-27T12:09:44.561Z,1.77
2022-08-27T12:12:23.460Z,2.13
2022-08-27T12:14:54.844Z,1.60
2022-08-27T12:17:36.212Z,2.30
2022-08-27T12:20:21.596Z,2.20
2022-08-27T12:23:22.047Z,1.83
2022-08-27T12:25:56.592Z,1.60
2022-08-27T12:28:26.693Z,2.63
2022-08-27T12:30:54.816Z,1.73
2022-08-27T12:33:21.857Z,1.87
2022-08-27T12:35:50.735Z,1.60
2022-08-27T12:38:33.605Z,1.57
2022-08-27T12:41:09.056Z,2.37
2022-08-27T12:43:43.475Z,1.73
2022-08-27T12:46:17.998Z,1.23
2022-08-27T12:48:52.443Z,1.53
2022-08-27T12:51:23.440Z,1.70
2022-08-27T12:53:50.639Z,1.63
2022-08-27T12:56:20.527Z,1.40
2022-08-27T12:58:54.199Z,1.10
2022-08-27T13:01:50.936Z,1.37
2022-08-27T13:04:26.328Z,1.90
2022-08-27T13:06:53.560Z,2.03
2022-08-27T13:09:28.650Z,1.80
2022-08-27T13:11:56.945Z,1.87
2022-08-27T13:14:25.554Z,1.97
2022-08-27T13:16:52.624Z,1.90
2022-08-27T13:19:36.132Z,1.53
2022-08-27T13:22:06.299Z,1.50
2022-08-27T13:24:35.712Z,2.17
2022-08-27T13:27:03.795Z,1.77
2022-08-27T13:29:31.198Z,2.23
2022-08-27T13:31:59.305Z,1.80
2022-08-27T13:34:28.180Z,1.53
2022-08-27T13:36:58.247Z,2.17
2022-08-27T13:39:26.084Z,2.77
2022-08-27T13:41:53.402Z,2.30
2022-08-27T13:44:37.139Z,1.67
2022-08-27T13:47:07.506Z,1.13
2022-08-27T13:49:36.756Z,2.80
2022-08-27T13:52:23.513Z,1.37
2022-08-27T13:55:00.945Z,1.80
2022-08-27T13:57:33.061Z,1.60
2022-08-27T14:00:29.870Z,1.50
2022-08-27T14:02:58.749Z,2.90
2022-08-27T14:05:27.377Z,1.80
2022-08-27T14:08:17.922Z,1.70
2022-08-27T14:10:47.158Z,1.90
2022-08-27T14:13:21.665Z,1.70
2022-08-27T14:15:54.298Z,2.67
2022-08-27T14:18:37.121Z,2.13
2022-08-27T14:21:13.492Z,2.00
2022-08-27T14:23:41.121Z,1.73
2022-08-27T14:26:08.571Z,1.80
2022-08-27T14:28:35.637Z,2.07
2022-08-27T14:31:02.785Z,2.33
2022-08-27T14:33:30.364Z,2.13
2022-08-27T14:35:57.495Z,2.23
2022-08-27T14:38:30.146Z,2.00
2022-08-27T14:40:58.554Z,2.27
2022-08-27T14:43:26.202Z,1.87
2022-08-27T14:45:54.116Z,2.27
2022-08-27T14:48:29.035Z,1.57
2022-08-27T14:50:56.733Z,2.17
2022-08-27T14:53:24.156Z,1.87
2022-08-27T14:55:51.997Z,2.30
2022-08-27T14:58:19.523Z,1.13
2022-08-27T15:00:46.784Z,2.00
2022-08-27T15:03:13.894Z,2.30
2022-08-27T15:05:41.214Z,2.00
2022-08-27T15:08:13.359Z,1.70
2022-08-27T15:10:40.995Z,1.77
2022-08-27T15:13:09.552Z,2.30
2022-08-27T15:15:36.706Z,2.10
2022-08-27T15:18:04.258Z,2.43
2022-08-27T15:20:31.451Z,1.80
2022-08-27T15:22:58.788Z,2.30
2022-08-27T15:25:25.976Z,2.20
2022-08-27T15:27:53.059Z,2.30
2022-08-27T15:30:24.724Z,2.70
2022-08-27T15:32:51.930Z,1.50
2022-08-27T15:35:20.925Z,1.87
2022-08-27T15:37:48.118Z,1.43
2022-08-27T15:40:16.410Z,1.70
2022-08-27T15:42:43.718Z,2.03
2022-08-27T15:45:12.096Z,1.73
2022-08-27T15:47:40.403Z,1.63
2022-08-27T15:50:07.978Z,1.47
2022-08-27T15:52:40.913Z,1.90
2022-08-27T15:55:13.614Z,2.10
2022-08-27T15:57:40.697Z,1.77
2022-08-27T16:00:08.220Z,1.73
2022-08-27T16:02:35.404Z,2.00
2022-08-27T16:05:02.540Z,2.90
2022-08-27T16:07:29.672Z,1.87
2022-08-27T16:09:56.812Z,2.40
2022-08-27T16:12:27.418Z,1.83
2022-08-27T16:14:55.265Z,2.20
2022-08-27T16:17:22.578Z,2.03
2022-08-27T16:19:49.703Z,1.53
2022-08-27T16:22:16.857Z,2.53
2022-08-27T16:24:44.064Z,2.00
2022-08-27T16:27:11.295Z,2.07
2022-08-27T16:29:38.533Z,2.10
2022-08-27T16:32:08.641Z,2.23
2022-08-27T16:34:35.869Z,1.80
2022-08-27T16:37:02.971Z,1.20
2022-08-27T16:39:33.697Z,1.90
2022-08-27T16:42:03.533Z,2.37
2022-08-27T16:44:31.441Z,1.87
2022-08-27T16:46:58.547Z,2.13
2022-08-27T16:49:44.510Z,1.50
2022-08-27T16:52:11.660Z,2.50
2022-08-27T16:54:39.063Z,1.83
2022-08-27T16:57:06.281Z,1.87
2022-08-27T16:59:33.509Z,2.20
2022-08-27T17:02:00.739Z,1.90
2022-08-27T17:04:31.489Z,1.47
2022-08-27T17:07:05.349Z,2.10
2022-08-27T17:09:32.590Z,1.90
2022-08-27T17:12:04.422Z,2.13
2022-08-27T17:14:37.925Z,1.80
2022-08-27T17:17:06.400Z,2.07
2022-08-27T17:19:34.773Z,1.77
2022-08-27T17:22:03.524Z,2.90
2022-08-27T17:24:30.799Z,1.60
2022-08-27T17:26:58.122Z,1.40
2022-08-27T17:29:25.374Z,2.20
2022-08-27T17:31:52.607Z,2.43
2022-08-27T17:34:24.289Z,2.30
2022-08-27T17:36:52.507Z,2.03
2022-08-27T17:39:20.118Z,2.00
2022-08-27T17:41:48.590Z,1.97
2022-08-27T17:44:21.810Z,1.83
2022-08-27T17:46:49.995Z,2.07
2022-08-27T17:49:18.106Z,2.27
2022-08-27T17:51:49.417Z,2.10
2022-08-27T17:54:36.772Z,1.70
2022-08-27T17:57:10.902Z,1.50
2022-08-27T17:59:38.461Z,1.97
2022-08-27T18:02:05.621Z,2.10
2022-08-27T18:04:32.941Z,1.30
2022-08-27T18:07:00.131Z,2.27
2022-08-27T18:09:27.220Z,2.00
2022-08-27T18:11:54.317Z,2.57
2022-08-27T18:14:23.727Z,1.60
2022-08-27T18:16:50.988Z,1.57
2022-08-27T18:19:18.234Z,1.37
2022-08-27T18:21:46.956Z,1.70
2022-08-27T18:24:14.549Z,1.53
2022-08-27T18:26:41.846Z,1.30
2022-08-27T18:29:09.067Z,0.90
2022-08-27T18:31:36.233Z,0.90
2022-08-27T18:34:03.402Z,1.20
2022-08-27T18:36:31.639Z,1.10
2022-08-27T18:38:58.817Z,1.80
2022-08-27T18:41:26.461Z,1.77
2022-08-27T18:43:54.722Z,1.00
2022-08-27T18:46:21.924Z,1.63
2022-08-27T18:48:49.118Z,2.53
2022-08-27T18:51:19.541Z,1.30
2022-08-27T18:53:48.036Z,3.17
2022-08-27T18:56:16.700Z,2.27
2022-08-27T18:58:44.116Z,1.43
2022-08-27T19:01:13.360Z,1.03
2022-08-27T19:03:43.492Z,1.00
2022-08-27T19:06:11.206Z,1.13
2022-08-27T19:08:42.069Z,2.50
2022-08-27T19:11:09.173Z,1.30
2022-08-27T19:13:36.329Z,1.03
2022-08-27T19:16:05.082Z,1.23
2022-08-27T19:18:33.797Z,0.90
2022-08-27T19:21:00.916Z,1.67
2022-08-27T19:23:28.105Z,1.03
2022-08-27T19:25:55.318Z,1.53
2022-08-27T19:28:24.624Z,3.33
2022-08-27T19:30:51.841Z,1.87
2022-08-27T19:33:19.208Z,0.97
2022-08-27T19:35:46.406Z,1.23
2022-08-27T19:38:14.423Z,1.37
2022-08-27T19:40:41.952Z,0.87
2022-08-27T19:43:09.346Z,2.00
2022-08-27T19:45:39.837Z,0.97
2022-08-27T19:48:08.199Z,0.97
2022-08-27T19:50:35.601Z,1.10
2022-08-27T19:53:02.865Z,1.20
2022-08-27T19:55:29.971Z,1.13
2022-08-27T19:57:57.528Z,0.87
2022-08-27T20:00:27.765Z,0.80
2022-08-27T20:02:55.217Z,1.43
2022-08-27T20:05:23.062Z,1.40
2022-08-27T20:07:53.402Z,1.50
2022-08-27T20:10:21.706Z,1.60
2022-08-27T20:12:49.137Z,0.77
2022-08-27T20:15:16.254Z,0.70
2022-08-27T20:17:43.959Z,1.40
2022-08-27T20:20:12.682Z,1.03
2022-08-27T20:22:40.178Z,0.83
2022-08-27T20:25:07.859Z,2.43
2022-08-27T20:27:35.105Z,0.80
2022-08-27T20:30:04.598Z,0.77
2022-08-27T20:32:31.913Z,2.30
2022-08-27T20:34:59.023Z,0.63
2022-08-27T20:37:26.115Z,1.73
2022-08-27T20:39:53.772Z,0.90
2022-08-27T20:42:21.039Z,0.90
2022-08-27T20:44:48.678Z,1.20
2022-08-27T20:47:16.290Z,2.03
2022-08-27T20:49:44.594Z,1.10
2022-08-27T20:52:13.218Z,1.10
2022-08-27T20:54:40.703Z,0.90
2022-08-27T20:57:08.824Z,0.97
2022-08-27T20:59:54.516Z,0.70
2022-08-27T21:02:23.174Z,1.13
2022-08-27T21:04:51.899Z,0.70
2022-08-27T21:07:19.844Z,3.20
2022-08-27T21:09:56.446Z,1.50
2022-08-27T21:12:25.772Z,1.20
2022-08-27T21:14:55.654Z,1.00
2022-08-27T21:17:24.456Z,1.57
2022-08-27T21:19:51.652Z,0.90
2022-08-27T21:22:19.131Z,1.33
2022-08-27T21:24:49.391Z,0.97
2022-08-27T21:27:17.689Z,0.73
2022-08-27T21:29:45.023Z,0.77
2022-08-27T21:32:12.639Z,1.73
2022-08-27T21:34:39.905Z,0.87
2022-08-27T21:37:06.983Z,0.97
2022-08-27T21:39:34.436Z,2.00
2022-08-27T21:42:01.973Z,0.97
2022-08-27T21:44:29.620Z,1.00
2022-08-27T21:46:56.827Z,1.53
2022-08-27T21:49:24.298Z,0.60
2022-08-27T21:51:51.483Z,1.50
2022-08-27T21:54:18.593Z,0.87
2022-08-27T21:56:46.015Z,1.10
2022-08-27T21:59:13.208Z,1.10
2022-08-27T22:01:40.682Z,0.30
2022-08-27T22:04:08.322Z,1.20
2022-08-27T22:06:35.491Z,1.40
2022-08-27T22:09:02.863Z,1.23
2022-08-27T22:11:30.671Z,1.43
2022-08-27T22:13:58.305Z,0.80
2022-08-27T22:16:25.503Z,1.20
2022-08-27T22:18:54.570Z,1.30
2022-08-27T22:21:22.466Z,1.47
2022-08-27T22:23:51.409Z,1.20
2022-08-27T22:26:18.937Z,0.90
2022-08-27T22:28:46.029Z,1.60
2022-08-27T22:31:13.403Z,0.50
2022-08-27T22:33:40.665Z,0.50
2022-08-27T22:36:07.929Z,1.07
2022-08-27T22:38:35.034Z,1.63
2022-08-27T22:41:03.138Z,0.70
2022-08-27T22:43:31.060Z,1.20
2022-08-27T22:45:58.249Z,1.07
2022-08-27T22:48:25.709Z,1.20
2022-08-27T22:50:52.815Z,0.80
2022-08-27T22:53:20.030Z,0.60
2022-08-27T22:55:50.196Z,0.87
2022-08-27T22:58:18.057Z,0.90
2022-08-27T23:00:51.929Z,0.93
2022-08-27T23:03:20.237Z,0.70
2022-08-27T23:05:47.761Z,1.20
2022-08-27T23:08:15.774Z,0.87
2022-08-27T23:10:43.691Z,0.70
2022-08-27T23:13:11.366Z,1.20
2022-08-27T23:15:38.827Z,0.60
2022-08-27T23:18:06.067Z,0.77
2022-08-27T23:20:33.959Z,1.83
2022-08-27T23:23:01.087Z,0.50
2022-08-27T23:25:48.370Z,1.03
2022-08-27T23:28:15.901Z,0.50
2022-08-27T23:30:43.938Z,1.27
2022-08-27T23:33:11.072Z,0.97
2022-08-27T23:35:38.727Z,0.77
2022-08-27T23:38:07.043Z,0.73
2022-08-27T23:40:34.261Z,1.30
2022-08-27T23:43:01.393Z,0.60
2022-08-27T23:45:28.557Z,0.83
2022-08-27T23:47:55.674Z,0.90
2022-08-27T23:50:26.408Z,1.40
2022-08-27T23:53:01.748Z,1.37
2022-08-27T23:55:29.226Z,0.67
2022-08-27T23:57:57.728Z,1.90
